Salina, KS (67401)

10:35 PM CDT on April 25, 2018 (GMT -0500)
Salina | | Change Station
Active Advisory: Frost Advisory

Elev 1243 ft 38.83 °N, 97.62 °W | Updated 8 minutes ago

Clear
Clear
42.5 °F
Feels Like 42 °F
N
0.0
Wind Variable Wind from South

Today
High -- | Low -- °F
--% Chance of Precip.
Yesterday
High -- | Low -- °F
Precip. -- in
Pressure 30.12 in
Visibility 10.0 miles
Clouds Clear
Windchill 42 °F
Dew Point 42 °F
Humidity 98%
Rainfall 0.47 in
Snow Depth Not available.
6:40 AM 8:17 PM
Waxing Gibbous, 83% visible
METAR KSLN 260253Z 24003KT 10SM CLR 07/06 A3010 RMK AO2 SLP197 T00670056 55006
Pressure 30.12 in
Visibility 10.0 miles
Clouds Clear
Windchill 42 °F
Dew Point 42 °F
Humidity 98%
Rainfall 0.47 in
Snow Depth Not available.
6:40 AM 8:17 PM
Waxing Gibbous, 83% visible
METAR KSLN 260253Z 24003KT 10SM CLR 07/06 A3010 RMK AO2 SLP197 T00670056 55006

Get Your Daily Forecast Email!

Thanks for signing up!

Be on the lookout for a verification email in your inbox.

You'll start receiving severe weather alerts in your inbox..

×

10-Day Weather Forecast

Almanac

Astronomy

Apr. 25, 2018 Rise Set
Actual Time
Civil Twilight
Nautical Twilight
Astronomical Twilight
Moon
Length of Visible Light
Length of Day
Tomorrow will be .
, % of the Moon is Illuminated

Today's Extremes

State Highs State Lows

Community

WunderPhotos

Category 6

Welcome to Category 6. This is the collective home for Weather Underground's featured writeups by Dr. Jeff Masters (right), Bob Henson (left), Chris Burt, and other regular contributors.

Nearby

Air Quality

  Air Quality AQ Index Pollutant
Not available.

Snow Depth

Station Depth Elevation

Earthquake Activity

City Distance Mag. Time & Date
Minimum magnitude displayed is 2.5.

Coastal Water Temperatures

Place Temperature

Stations

Nearby Weather Stations

Station Location Temp. Windchill Dew Point Humidity Wind Precip. Elev Updated Type
                   

Watches & Warnings

Frost Advisory
Issued: 2:53 PM CDT Apr. 25, 2018 – National Weather Service

... Frost advisory in effect from 2 am to 8 am CDT Thursday...

The National Weather Service in Wichita has issued a frost
advisory, which is in effect from 2 am to 8 am CDT Thursday.

* Temperatures... in the mid to upper 30s.

* Timing... clearing skies and light winds will lead to areas of
frost early Thursday morning.

* Impacts... frost development may damage tender plants and other
vegetation. Covering outdoor plants will protect them.


Precautionary/preparedness actions...

A frost advisory means that frost is possible. Sensitive outdoor
plants may be killed if left uncovered.



Ketcham